createdAt,value
2016-05-14T11:10:25.024Z,28.72
2016-05-14T11:11:25.216Z,29.97
2016-05-14T11:12:24.999Z,31.1
2016-05-14T11:13:25.002Z,30.64
2016-05-14T11:14:24.973Z,31.2
2016-05-14T11:15:24.976Z,32.63
2016-05-14T11:16:24.963Z,31.66
2016-05-14T11:17:24.966Z,32.04
2016-05-14T11:18:24.968Z,32.12
2016-05-14T11:19:25.049Z,32.31
2016-05-14T11:20:24.927Z,32.98
2016-05-14T11:21:24.929Z,33.25
2016-05-14T11:22:24.917Z,33.54
2016-05-14T11:23:24.919Z,34.69
2016-05-14T11:24:24.891Z,35.35
2016-05-14T11:25:24.894Z,35.24
2016-05-14T11:26:24.881Z,35.64
2016-05-14T11:27:24.868Z,35.05
2016-05-14T11:28:24.855Z,34.86
2016-05-14T11:29:24.857Z,34.67
2016-05-14T11:30:24.844Z,35.72
2016-05-14T11:31:24.831Z,36.29
2016-05-14T11:32:24.819Z,35.26
2016-05-14T11:33:24.836Z,32.5
2016-05-14T11:34:24.824Z,32.34
2016-05-14T11:35:24.796Z,31.79
2016-05-14T11:36:24.799Z,30.73
2016-05-14T11:37:24.801Z,30.83
2016-05-14T11:38:24.772Z,31.29
2016-05-14T11:39:24.791Z,32.92
2016-05-14T11:40:24.777Z,31.87
2016-05-14T11:41:24.765Z,33
2016-05-14T11:42:24.751Z,32.04
2016-05-14T11:43:24.598Z,32.21
2016-05-14T11:44:24.741Z,33.17
2016-05-14T11:45:24.729Z,33.94
2016-05-14T11:46:24.731Z,34.7
2016-05-14T11:47:24.562Z,33.56
2016-05-14T11:48:24.627Z,32.5
2016-05-14T11:49:24.709Z,33.44
2016-05-14T11:50:24.695Z,33.73
2016-05-14T11:51:24.698Z,33.92
2016-05-14T11:52:24.685Z,34.59
2016-05-14T11:53:24.516Z,33.65
2016-05-14T11:54:24.659Z,33.46
2016-05-14T11:55:24.709Z,35.08
2016-05-14T11:56:24.648Z,35.08
2016-05-14T11:57:24.636Z,33.56
2016-05-14T11:58:24.623Z,32.04
2016-05-14T11:59:24.625Z,32.63
2016-05-14T12:00:24.628Z,30.44
2016-05-14T12:01:24.615Z,28.66
2016-05-14T12:02:24.618Z,25.98
2016-05-14T12:03:24.980Z,25.89
2016-05-14T12:04:24.592Z,25.13
2016-05-14T12:05:24.594Z,24.18
2016-05-14T12:06:24.582Z,24.86
2016-05-14T12:07:24.600Z,25.05
2016-05-14T12:08:24.415Z,25.79
2016-05-14T12:09:24.575Z,27.52
2016-05-14T12:10:24.420Z,28.56
2016-05-14T12:11:24.563Z,28.56
2016-05-14T12:12:24.426Z,28.35
2016-05-14T12:13:24.569Z,28.45
2016-05-14T12:14:24.572Z,28.53
2016-05-14T12:15:24.560Z,29.2
2016-05-14T12:16:24.547Z,29.19
2016-05-14T12:17:24.549Z,30.24
2016-05-14T12:18:24.552Z,31.1
2016-05-14T12:19:24.554Z,31.66
2016-05-14T12:20:24.542Z,32.14
2016-05-14T12:21:24.545Z,32.23
2016-05-14T12:22:24.515Z,32.31
2016-05-14T12:23:24.362Z,32.41
2016-05-14T12:24:24.349Z,32.68
2016-05-14T12:25:24.351Z,34.01
2016-05-14T12:26:24.495Z,33.73
2016-05-14T12:27:24.482Z,32.97
2016-05-14T12:28:24.484Z,32.97
2016-05-14T12:29:24.472Z,32.39
2016-05-14T12:30:24.459Z,32.29
2016-05-14T12:31:24.446Z,33.25
2016-05-14T12:32:24.449Z,33.25
2016-05-14T12:33:24.560Z,33.15
2016-05-14T12:34:24.438Z,32.29
2016-05-14T12:35:24.425Z,34.51
2016-05-14T12:36:24.428Z,30.72
2016-05-14T12:37:24.415Z,28.72
2016-05-14T12:38:24.230Z,29.6
2016-05-14T12:39:24.405Z,29.8
2016-05-14T12:40:24.392Z,28.27
2016-05-14T12:41:24.380Z,28.38
2016-05-14T12:42:24.382Z,27.15
2016-05-14T12:43:24.385Z,24.09
2016-05-14T12:44:24.372Z,25.23
2016-05-14T12:45:24.359Z,26.09
2016-05-14T12:46:24.362Z,24.09
2016-05-14T12:47:24.207Z,24.2
2016-05-14T12:48:24.648Z,24.77
2016-05-14T12:49:24.338Z,26.13
2016-05-14T12:50:24.356Z,25.46
2016-05-14T12:51:24.376Z,22.3
2016-05-14T12:52:24.346Z,23.83
2016-05-14T12:53:24.551Z,23.54
2016-05-14T12:54:24.195Z,24.21
2016-05-14T12:55:24.354Z,23.26
2016-05-14T12:56:24.342Z,23.36
2016-05-14T12:57:24.359Z,24.02
2016-05-14T12:58:24.331Z,24.11
2016-05-14T12:59:24.334Z,24.6
2016-05-14T13:00:24.336Z,24.29
2016-05-14T13:01:24.339Z,23.22
2016-05-14T13:02:24.326Z,23.69
2016-05-14T13:03:24.172Z,24.45
2016-05-14T13:04:24.175Z,24.91
2016-05-14T13:05:24.319Z,25.87
2016-05-14T13:06:24.322Z,27.01
2016-05-14T13:07:24.324Z,26.82
2016-05-14T13:08:24.327Z,26.04
2016-05-14T13:09:24.314Z,26.81
2016-05-14T13:10:24.316Z,27.84
2016-05-14T13:11:24.319Z,28.42
2016-05-14T13:12:24.307Z,28.33
2016-05-14T13:13:24.293Z,29.74
2016-05-14T13:14:24.296Z,30.13
2016-05-14T13:15:24.299Z,30.7
2016-05-14T13:16:24.286Z,30.69
2016-05-14T13:17:24.273Z,30.88
2016-05-14T13:18:24.291Z,31.26
2016-05-14T13:19:24.279Z,31.43
2016-05-14T13:20:24.124Z,31.34
2016-05-14T13:21:24.252Z,32.39
2016-05-14T13:22:24.459Z,32.78
2016-05-14T13:23:24.242Z,33.54
2016-05-14T13:24:24.229Z,34.86
2016-05-14T13:25:24.076Z,36
2016-05-14T13:26:24.075Z,36.58
2016-05-14T13:27:24.257Z,36.39
2016-05-14T13:28:24.283Z,36.77
2016-05-14T13:29:24.324Z,36.39
2016-05-14T13:30:24.351Z,36.1
2016-05-14T13:31:24.368Z,37.34
2016-05-14T13:32:24.370Z,37.92
2016-05-14T13:33:24.761Z,36.58
2016-05-14T13:34:24.388Z,36.88
2016-05-14T13:35:24.405Z,36.33
2016-05-14T13:36:24.419Z,35.77
2016-05-14T13:37:24.396Z,34.55
2016-05-14T13:38:24.403Z,33.22
2016-05-14T13:39:24.395Z,31.99
2016-05-14T13:40:24.387Z,31.32
2016-05-14T13:41:24.378Z,30.94
2016-05-14T13:42:24.383Z,31.32
2016-05-14T13:43:24.372Z,30.67
2016-05-14T13:44:24.392Z,30.36
2016-05-14T13:45:24.365Z,31.24
2016-05-14T13:46:24.229Z,31.53
2016-05-14T13:47:24.372Z,33.33
2016-05-14T13:48:24.376Z,33.7
2016-05-14T13:49:24.348Z,33.99
2016-05-14T13:50:24.351Z,34.93
2016-05-14T13:51:24.355Z,35.69
2016-05-14T13:52:24.343Z,36.65
2016-05-14T13:53:24.346Z,37.51
2016-05-14T13:54:24.332Z,35.33
2016-05-14T13:55:24.179Z,36
2016-05-14T13:56:24.338Z,33.91
2016-05-14T13:57:24.168Z,33.81
2016-05-14T13:58:24.171Z,36.77
2016-05-14T13:59:24.314Z,35.35
2016-05-14T14:00:24.318Z,35.06
2016-05-14T14:01:24.304Z,34.69
2016-05-14T14:02:24.307Z,32.39
2016-05-14T14:03:24.622Z,32.51
2016-05-14T14:04:24.296Z,31.35
2016-05-14T14:05:24.298Z,30.97
2016-05-14T14:06:24.287Z,30.89
2016-05-14T14:07:24.290Z,30.78
2016-05-14T14:08:24.292Z,31.46
2016-05-14T14:09:24.278Z,31.26
2016-05-14T14:10:24.126Z,30.99
2016-05-14T14:11:24.269Z,31.74
2016-05-14T14:12:24.272Z,32.01
2016-05-14T14:13:24.117Z,31.16
2016-05-14T14:14:24.261Z,30.09
2016-05-14T14:15:24.263Z,31.15
2016-05-14T14:16:24.111Z,31.24
2016-05-14T14:17:24.253Z,32.47
2016-05-14T14:18:24.256Z,33.99
2016-05-14T14:19:24.258Z,35.12
2016-05-14T14:20:24.246Z,35.12
2016-05-14T14:21:24.249Z,35.5
2016-05-14T14:22:24.251Z,36.35
2016-05-14T14:23:24.239Z,36.35
2016-05-14T14:24:24.225Z,36.73
2016-05-14T14:25:24.213Z,39.22
2016-05-14T14:26:24.215Z,38.45
2016-05-14T14:27:24.202Z,37.78
2016-05-14T14:28:24.205Z,37.49
2016-05-14T14:29:24.207Z,37.02
2016-05-14T14:30:24.195Z,37.4
2016-05-14T14:31:24.197Z,37.28
2016-05-14T14:32:24.185Z,37.38
2016-05-14T14:33:24.374Z,38.14
2016-05-14T14:34:24.518Z,38.81
2016-05-14T14:35:24.161Z,40.23
2016-05-14T14:36:24.149Z,42.71
2016-05-14T14:37:24.151Z,45.01
2016-05-14T14:38:24.138Z,46.99
2016-05-14T14:39:24.125Z,48.23
2016-05-14T14:40:24.112Z,49.18
2016-05-14T14:41:24.115Z,51.19
2016-05-14T14:42:24.103Z,57.09
2016-05-14T14:43:24.120Z,56.89
2016-05-14T14:44:24.075Z,58.48
2016-05-14T14:45:24.266Z,62.4
2016-05-14T14:46:24.066Z,61.22
2016-05-14T14:47:24.052Z,62.46
2016-05-14T14:48:24.039Z,62.81
2016-05-14T14:49:23.872Z,64.43
2016-05-14T14:50:24.014Z,65.83
2016-05-14T14:51:24.001Z,66.31
2016-05-14T14:52:23.988Z,68.88
2016-05-14T14:53:23.991Z,66.97
2016-05-14T14:54:23.978Z,65.36
2016-05-14T14:55:23.965Z,69.35
2016-05-14T14:56:23.796Z,68.59
2016-05-14T14:57:23.938Z,66.63
2016-05-14T14:58:23.927Z,67.39
2016-05-14T14:59:23.913Z,67.39
2016-05-14T15:00:23.901Z,66.91
2016-05-14T15:01:23.887Z,64.34
2016-05-14T15:02:23.874Z,66.63
2016-05-14T15:03:24.611Z,66.91
2016-05-14T15:04:24.207Z,66.38
2016-05-14T15:05:23.835Z,63.8
2016-05-14T15:06:23.838Z,64.94
2016-05-14T15:07:23.809Z,66.94
2016-05-14T15:08:23.812Z,67.04
2016-05-14T15:09:23.800Z,66.75
2016-05-14T15:10:23.787Z,63.26
2016-05-14T15:11:23.805Z,65.17
2016-05-14T15:12:23.761Z,64.59
2016-05-14T15:13:23.748Z,65.55
2016-05-14T15:14:23.735Z,62.97
2016-05-14T15:15:23.737Z,64.4
2016-05-14T15:16:23.709Z,64.12
2016-05-14T15:17:23.711Z,62.71
2016-05-14T15:18:23.542Z,62.05
2016-05-14T15:19:23.842Z,62.65
2016-05-14T15:20:23.672Z,61.32
2016-05-14T15:21:23.660Z,60.3
2016-05-14T15:22:23.663Z,61.92
2016-05-14T15:23:23.649Z,57.71
2016-05-14T15:24:23.637Z,56.47
2016-05-14T15:25:24.093Z,56.63
2016-05-14T15:26:23.627Z,59.66
2016-05-14T15:27:23.613Z,58.04
2016-05-14T15:28:23.601Z,58.9
2016-05-14T15:29:23.650Z,57.85
2016-05-14T15:30:23.591Z,57.53
2016-05-14T15:31:23.593Z,56.48
2016-05-14T15:32:23.565Z,58.68
2016-05-14T15:33:23.771Z,59.25
2016-05-14T15:34:23.413Z,59.25
2016-05-14T15:35:23.540Z,60.11
2016-05-14T15:36:23.543Z,56.67
2016-05-14T15:37:23.531Z,58.48
2016-05-14T15:38:23.518Z,59.34
2016-05-14T15:39:23.506Z,57.82
2016-05-14T15:40:23.492Z,58.87
2016-05-14T15:41:23.339Z,58.01
2016-05-14T15:42:23.482Z,58.68
2016-05-14T15:43:23.312Z,59.03
2016-05-14T15:44:23.456Z,56.84
2016-05-14T15:45:23.443Z,57.6
2016-05-14T15:46:23.431Z,56.36
2016-05-14T15:47:23.433Z,55.88
2016-05-14T15:48:23.701Z,56.07
2016-05-14T15:49:23.250Z,55.98
2016-05-14T15:50:23.394Z,57.79
2016-05-14T15:51:23.397Z,58.36
2016-05-14T15:52:23.368Z,56.84
2016-05-14T15:53:23.355Z,56.93
2016-05-14T15:54:23.358Z,53.97
2016-05-14T15:55:23.345Z,54.55
2016-05-14T15:56:23.160Z,55.95
2016-05-14T15:57:23.632Z,56.46
2016-05-14T15:58:23.290Z,56.55
2016-05-14T15:59:23.293Z,55.69
2016-05-14T16:00:23.124Z,55.76
2016-05-14T16:01:23.268Z,57.6
2016-05-14T16:02:23.254Z,56.84
2016-05-14T16:03:23.274Z,55.98
2016-05-14T16:04:23.229Z,54.55
2016-05-14T16:05:23.215Z,53.12
2016-05-14T16:06:23.203Z,54.17
2016-05-14T16:07:23.190Z,54.36
2016-05-14T16:08:23.176Z,53.33
2016-05-14T16:09:23.196Z,54.67
2016-05-14T16:10:23.010Z,53.45
2016-05-14T16:11:23.154Z,51.26
2016-05-14T16:12:23.140Z,51.26
2016-05-14T16:13:23.128Z,52.31
2016-05-14T16:14:23.115Z,52.98
2016-05-14T16:15:23.103Z,50.9
2016-05-14T16:16:23.090Z,51.19
2016-05-14T16:17:23.076Z,51.09
2016-05-14T16:18:23.125Z,49.11
2016-05-14T16:19:23.066Z,49.38
2016-05-14T16:20:23.037Z,49.66
2016-05-14T16:21:23.040Z,49.47
2016-05-14T16:22:23.028Z,50.33
2016-05-14T16:23:22.858Z,48.71
2016-05-14T16:24:23.032Z,48.83
2016-05-14T16:25:23.004Z,48.73
2016-05-14T16:26:22.835Z,50.04
2016-05-14T16:27:22.994Z,49.21
2016-05-14T16:28:22.980Z,48.93
2016-05-14T16:29:22.796Z,49.4
2016-05-14T16:30:22.954Z,47.49
2016-05-14T16:31:22.974Z,45.58
2016-05-14T16:32:22.944Z,45.2
2016-05-14T16:33:22.932Z,46.92
2016-05-14T16:34:23.871Z,47.97
2016-05-14T16:35:22.749Z,46.66
2016-05-14T16:36:22.909Z,45.12
2016-05-14T16:37:22.896Z,41.85
2016-05-14T16:38:22.883Z,42.04
2016-05-14T16:39:22.885Z,40.8
2016-05-14T16:40:22.872Z,41.64
2016-05-14T16:41:22.860Z,42.6
2016-05-14T16:42:22.878Z,42.71
2016-05-14T16:43:25.803Z,41.55
2016-05-14T16:44:22.851Z,41.66
2016-05-14T16:45:28.651Z,43.09
2016-05-14T16:46:23.029Z,41.75
2016-05-14T16:47:22.828Z,41.85
2016-05-14T16:48:30.269Z,41.35
2016-05-14T16:49:22.819Z,41.93
2016-05-14T16:50:22.790Z,41.91
2016-05-14T16:51:22.792Z,42.67
2016-05-14T16:52:22.795Z,44.29
2016-05-14T16:53:29.861Z,44.87
2016-05-14T16:54:22.769Z,43.82
2016-05-14T16:55:22.772Z,45.61
2016-05-14T16:56:22.759Z,44.74
2016-05-14T16:57:22.746Z,43.82
2016-05-14T16:58:22.733Z,42.57
2016-05-14T16:59:22.610Z,42.67
2016-05-14T17:00:22.739Z,41.43
2016-05-14T17:01:22.711Z,42
2016-05-14T17:02:22.713Z,43.15
2016-05-14T17:03:22.699Z,43.32
2016-05-14T17:04:22.719Z,43.22
2016-05-14T17:05:22.690Z,43.98
2016-05-14T17:06:22.676Z,43.7
2016-05-14T17:07:22.663Z,45.25
2016-05-14T17:08:22.651Z,43.33
2016-05-14T17:09:22.654Z,43.41
2016-05-14T17:10:22.640Z,43.13
2016-05-14T17:11:22.628Z,42.74
2016-05-14T17:12:22.645Z,43.41
2016-05-14T17:13:22.618Z,43.41
2016-05-14T17:14:22.604Z,44.65
2016-05-14T17:15:22.592Z,44.84
2016-05-14T17:16:22.579Z,45.42
2016-05-14T17:17:22.581Z,44.65
2016-05-14T17:18:22.568Z,45.99
2016-05-14T17:19:22.571Z,43.89
2016-05-14T17:20:22.542Z,44.73
2016-05-14T17:21:22.530Z,44.63
2016-05-14T17:22:22.517Z,45.39
2016-05-14T17:23:22.503Z,44.73
2016-05-14T17:24:22.506Z,46.34
2016-05-14T17:25:22.494Z,46.73
2016-05-14T17:26:22.325Z,45.1
2016-05-14T17:27:22.467Z,45.2
2016-05-14T17:28:22.314Z,46.15
2016-05-14T17:29:22.441Z,45.87
2016-05-14T17:30:22.444Z,45.39
2016-05-14T17:31:22.432Z,46.15
2016-05-14T17:32:22.419Z,46.06
2016-05-14T17:33:22.733Z,47.2
2016-05-14T17:34:22.580Z,46.15
2016-05-14T17:35:22.380Z,46.92
2016-05-14T17:36:22.366Z,46.15
2016-05-14T17:37:22.354Z,46.73
2016-05-14T17:38:22.357Z,47.49
2016-05-14T17:39:22.329Z,47.39
2016-05-14T17:40:22.315Z,47.68
2016-05-14T17:41:22.318Z,47.87
2016-05-14T17:42:22.304Z,48.16
2016-05-14T17:43:22.292Z,49.3
2016-05-14T17:44:22.278Z,49.21
2016-05-14T17:45:22.266Z,48.73
2016-05-14T17:46:22.254Z,48.92
2016-05-14T17:47:22.240Z,50.73
2016-05-14T17:48:22.586Z,49.78
2016-05-14T17:49:22.230Z,49.3
2016-05-14T17:50:22.201Z,49.85
2016-05-14T17:51:22.204Z,50.23
2016-05-14T17:52:22.175Z,50.42
2016-05-14T17:53:22.162Z,50.23
2016-05-14T17:54:22.149Z,51.28
2016-05-14T17:55:22.152Z,51.18
2016-05-14T17:56:22.124Z,51.66
2016-05-14T17:57:22.111Z,52.33
2016-05-14T17:58:22.097Z,52.42
2016-05-14T17:59:21.928Z,52.52
2016-05-14T18:00:22.072Z,52.33
2016-05-14T18:01:21.918Z,52.2
2016-05-14T18:02:22.046Z,53.35
2016-05-14T18:03:22.033Z,53.35
2016-05-14T18:04:22.021Z,53.83
2016-05-14T18:05:22.008Z,54.39
2016-05-14T18:06:21.995Z,53.28
2016-05-14T18:07:21.997Z,53.92
2016-05-14T18:08:21.968Z,54.78
2016-05-14T18:09:21.799Z,54.3
2016-05-14T18:10:21.958Z,54.39
2016-05-14T18:11:21.929Z,54.88
2016-05-14T18:12:21.917Z,54.49
2016-05-14T18:13:21.904Z,55.73
2016-05-14T18:14:21.891Z,54.49
2016-05-14T18:15:21.721Z,55.54
2016-05-14T18:16:21.865Z,54.78
2016-05-14T18:17:21.868Z,55.26
2016-05-14T18:18:21.776Z,55.63
2016-05-14T18:19:22.029Z,54.97
2016-05-14T18:20:21.814Z,55.16
2016-05-14T18:21:21.784Z,56.02
2016-05-14T18:22:21.615Z,56.02
2016-05-14T18:23:21.759Z,55.35
2016-05-14T18:24:21.746Z,54.3
2016-05-14T18:25:21.733Z,54.59
2016-05-14T18:26:21.720Z,55.16
2016-05-14T18:27:21.708Z,54.39
2016-05-14T18:28:21.538Z,55.07
2016-05-14T18:29:21.525Z,54.39
2016-05-14T18:30:21.668Z,55.44
2016-05-14T18:31:21.671Z,54.68
2016-05-14T18:32:21.642Z,53.54
2016-05-14T18:33:21.489Z,53.54
2016-05-14T18:34:21.679Z,53.35
2016-05-14T18:35:21.588Z,53.44
2016-05-14T18:36:21.575Z,53.54
2016-05-14T18:37:21.562Z,53.44
2016-05-14T18:38:21.549Z,53.44
2016-05-14T18:39:21.536Z,54.11
2016-05-14T18:40:21.523Z,54.11
2016-05-14T18:41:21.511Z,54.39
2016-05-14T18:42:21.498Z,54.59
2016-05-14T18:43:21.485Z,54.68
2016-05-14T18:44:21.456Z,55.63
2016-05-14T18:45:21.662Z,55.63
2016-05-14T18:46:21.430Z,55.44
2016-05-14T18:47:21.432Z,54.85
2016-05-14T18:48:21.482Z,55.04
2016-05-14T18:49:21.406Z,55.13
2016-05-14T18:50:21.378Z,55.51
2016-05-14T18:51:21.209Z,54.75
2016-05-14T18:52:21.353Z,55.13
2016-05-14T18:53:21.340Z,54.56
2016-05-14T18:54:21.311Z,54.66
2016-05-14T18:55:21.298Z,54.94
2016-05-14T18:56:21.300Z,55.8
2016-05-14T18:57:21.273Z,56.18
2016-05-14T18:58:21.275Z,54.66
2016-05-14T18:59:21.261Z,55.04
2016-05-14T19:00:21.234Z,54.66
2016-05-14T19:01:21.220Z,54.66
2016-05-14T19:02:21.208Z,55.32
2016-05-14T19:03:22.038Z,56.24
2016-05-14T19:04:21.166Z,56.05
2016-05-14T19:05:21.169Z,56.34
2016-05-14T19:06:21.141Z,56.92
2016-05-14T19:07:21.127Z,56.34
2016-05-14T19:08:21.113Z,56.92
2016-05-14T19:09:21.101Z,58.25
2016-05-14T19:10:21.088Z,57.58
2016-05-14T19:11:20.919Z,57.77
2016-05-14T19:12:21.078Z,58.44
2016-05-14T19:13:21.035Z,58.91
2016-05-14T19:14:21.037Z,58.34
2016-05-14T19:15:21.024Z,58.53
2016-05-14T19:16:20.995Z,58.91
2016-05-14T19:17:20.982Z,59.1
2016-05-14T19:18:20.954Z,60.05
2016-05-14T19:19:20.801Z,60.15
2016-05-14T19:20:20.944Z,59.67
2016-05-14T19:21:20.914Z,60.44
2016-05-14T19:22:20.917Z,59.67
2016-05-14T19:23:20.748Z,58.72
2016-05-14T19:24:20.720Z,60.15
2016-05-14T19:25:20.863Z,59.67
2016-05-14T19:26:20.851Z,59.96
2016-05-14T19:27:20.681Z,60.72
2016-05-14T19:28:20.825Z,61.19
2016-05-14T19:29:20.811Z,60.44
2016-05-14T19:30:20.783Z,60.44
2016-05-14T19:31:20.786Z,61.58
2016-05-14T19:32:20.757Z,61.1
2016-05-14T19:33:20.588Z,61
2016-05-14T19:34:20.716Z,60.24
2016-05-14T19:35:20.703Z,61
2016-05-14T19:36:20.893Z,60.34
2016-05-14T19:37:20.535Z,59.96
2016-05-14T19:38:20.663Z,60.15
2016-05-14T19:39:20.651Z,61.58
2016-05-14T19:40:20.638Z,61.48
2016-05-14T19:41:20.453Z,60.05
2016-05-14T19:42:20.596Z,61.1
2016-05-14T19:43:20.583Z,60.72
2016-05-14T19:44:20.571Z,60.91
2016-05-14T19:45:20.558Z,61.38
2016-05-14T19:46:20.529Z,61.38
2016-05-14T19:47:20.532Z,61.38
2016-05-14T19:48:20.518Z,61.58
2016-05-14T19:49:20.646Z,61.64
2016-05-14T19:50:20.477Z,61.74
2016-05-14T19:51:20.480Z,61.83
2016-05-14T19:52:20.452Z,62.78
2016-05-14T19:53:20.454Z,62.97
2016-05-14T19:54:20.426Z,63.26
2016-05-14T19:55:20.397Z,62.78
2016-05-14T19:56:20.384Z,63.83
2016-05-14T19:57:20.371Z,64.02
2016-05-14T19:58:20.203Z,63.83
2016-05-14T19:59:20.345Z,64.11
2016-05-14T20:00:20.160Z,64.59
2016-05-14T20:01:20.303Z,64.97
2016-05-14T20:02:20.292Z,64.69
2016-05-14T20:03:20.294Z,64.78
2016-05-14T20:04:20.468Z,64.21
2016-05-14T20:05:20.237Z,64.59
2016-05-14T20:06:20.239Z,64.78
2016-05-14T20:07:20.226Z,65.16
2016-05-14T20:08:20.198Z,65.54
2016-05-14T20:09:20.185Z,65.83
2016-05-14T20:10:20.172Z,65.99
2016-05-14T20:11:20.174Z,66.27
2016-05-14T20:12:20.130Z,65.8
2016-05-14T20:13:20.118Z,66.17
2016-05-14T20:14:20.105Z,66.17
2016-05-14T20:15:20.091Z,65.41
2016-05-14T20:16:19.922Z,66.27
2016-05-14T20:17:20.082Z,66.17
2016-05-14T20:18:20.052Z,66.65
2016-05-14T20:19:20.415Z,66.74
2016-05-14T20:20:19.854Z,66.74
2016-05-14T20:21:19.983Z,66.46
2016-05-14T20:22:19.985Z,66.27
2016-05-14T20:23:19.956Z,66.08
2016-05-14T20:24:19.944Z,65.99
2016-05-14T20:25:19.931Z,66.17
2016-05-14T20:26:19.918Z,66.17
2016-05-14T20:27:19.905Z,66.46
2016-05-14T20:28:19.876Z,66.55
2016-05-14T20:29:19.864Z,66.36
2016-05-14T20:30:19.850Z,67.5
2016-05-14T20:31:19.667Z,67.5
2016-05-14T20:32:19.809Z,68.07
2016-05-14T20:33:20.109Z,68.07
2016-05-14T20:34:19.628Z,67.69
2016-05-14T20:35:19.770Z,67.6
2016-05-14T20:36:19.773Z,67.98
2016-05-14T20:37:19.728Z,68.17
2016-05-14T20:38:19.731Z,68.55
2016-05-14T20:39:19.703Z,68.61
2016-05-14T20:40:19.675Z,68.9
2016-05-14T20:41:19.677Z,68.9
2016-05-14T20:42:19.649Z,69.18
2016-05-14T20:43:19.480Z,68.8
2016-05-14T20:44:19.608Z,68.71
2016-05-14T20:45:19.797Z,69.09
2016-05-14T20:46:19.613Z,69.27
2016-05-14T20:47:19.568Z,69.37
2016-05-14T20:48:19.571Z,69.66
2016-05-14T20:49:19.371Z,70.32
2016-05-14T20:50:19.513Z,70.32
2016-05-14T20:51:19.501Z,70.79
2016-05-14T20:52:19.488Z,70.51
2016-05-14T20:53:19.460Z,70.79
2016-05-14T20:54:19.462Z,70.99
2016-05-14T20:55:19.434Z,71.08
2016-05-14T20:56:19.421Z,70.79
2016-05-14T20:57:19.251Z,71.08
2016-05-14T20:58:19.379Z,71.56
2016-05-14T20:59:19.367Z,70.89
2016-05-14T21:00:19.353Z,71.56
2016-05-14T21:01:19.340Z,71.56
2016-05-14T21:02:19.328Z,71.75
2016-05-14T21:03:19.298Z,70.99
2016-05-14T21:04:19.286Z,71.18
2016-05-14T21:05:19.272Z,72.03
2016-05-14T21:06:19.245Z,71.18
2016-05-14T21:07:19.231Z,70.79
2016-05-14T21:08:19.219Z,71.18
2016-05-14T21:09:19.205Z,71.46
2016-05-14T21:10:19.177Z,71.84
2016-05-14T21:11:19.008Z,72.03
2016-05-14T21:12:19.151Z,71.27
2016-05-14T21:13:19.139Z,71.37
2016-05-14T21:14:19.110Z,71.75
2016-05-14T21:15:19.097Z,72.41
2016-05-14T21:16:18.927Z,71.46
2016-05-14T21:17:19.071Z,72.13
2016-05-14T21:18:19.058Z,72.22
2016-05-14T21:19:18.873Z,71.84
2016-05-14T21:20:19.048Z,71.08
2016-05-14T21:21:19.004Z,71.94
2016-05-14T21:22:18.818Z,71.23
2016-05-14T21:23:18.962Z,71.84
2016-05-14T21:24:18.949Z,71.18
2016-05-14T21:25:18.780Z,71.27
2016-05-14T21:26:18.751Z,70.99
2016-05-14T21:27:18.895Z,71.37
2016-05-14T21:28:18.882Z,71.66
2016-05-14T21:29:18.712Z,71.75
2016-05-14T21:30:18.840Z,71.94
2016-05-14T21:31:18.828Z,71.66
2016-05-14T21:32:18.814Z,71.66
2016-05-14T21:33:18.801Z,72.03
2016-05-14T21:34:18.631Z,71.94
2016-05-14T21:35:18.759Z,72.03
2016-05-14T21:36:18.747Z,71.66
2016-05-14T21:37:18.734Z,72.09
2016-05-14T21:38:18.705Z,71.9
2016-05-14T21:39:18.692Z,72.28
2016-05-14T21:40:18.680Z,72.66
2016-05-14T21:41:18.650Z,73.04
2016-05-14T21:42:18.638Z,73.23
2016-05-14T21:43:18.640Z,72.85
2016-05-14T21:44:18.612Z,73.42
2016-05-14T21:45:18.584Z,73.8
2016-05-14T21:46:18.571Z,73.61
2016-05-14T21:47:18.558Z,73.42
2016-05-14T21:48:18.544Z,73.61
2016-05-14T21:49:18.563Z,73.9
2016-05-14T21:50:18.504Z,73.61
2016-05-14T21:51:18.490Z,73.42
2016-05-14T21:52:18.462Z,73.9
2016-05-14T21:53:18.448Z,73.9
2016-05-14T21:54:18.436Z,73.71
2016-05-14T21:55:18.423Z,74.08
2016-05-14T21:56:18.410Z,74.18
2016-05-14T21:57:18.444Z,74.37
2016-05-14T21:58:18.353Z,73.99
2016-05-14T21:59:18.340Z,74.56
2016-05-14T22:00:18.327Z,74.37
2016-05-14T22:01:18.158Z,74.47
2016-05-14T22:02:18.489Z,74.47
2016-05-14T22:03:18.272Z,74.94
2016-05-14T22:04:18.260Z,74.66
2016-05-14T22:05:18.247Z,75.04
2016-05-14T22:06:18.218Z,74.75
2016-05-14T22:07:18.206Z,74.56
2016-05-14T22:08:18.192Z,74.75
2016-05-14T22:09:18.180Z,74.75
2016-05-14T22:10:18.150Z,74.75
2016-05-14T22:11:18.138Z,75.23
2016-05-14T22:12:18.125Z,74.75
2016-05-14T22:13:18.097Z,74.94
2016-05-14T22:14:18.099Z,74.94
2016-05-14T22:15:18.071Z,74.94
2016-05-14T22:16:18.058Z,75.23
2016-05-14T22:17:18.029Z,75.13
2016-05-14T22:18:18.016Z,75.13
2016-05-14T22:19:18.002Z,76.18
2016-05-14T22:20:18.005Z,75.89
2016-05-14T22:21:17.963Z,75.32
2016-05-14T22:22:17.949Z,75.23
2016-05-14T22:23:17.935Z,75.89
2016-05-14T22:24:17.748Z,76.08
2016-05-14T22:25:17.735Z,75.99
2016-05-14T22:26:17.879Z,75.95
2016-05-14T22:27:17.866Z,76.46
2016-05-14T22:28:17.838Z,76.27
2016-05-14T22:29:17.824Z,76.18
2016-05-14T22:30:17.812Z,76.37
2016-05-14T22:31:17.782Z,76.46
2016-05-14T22:32:17.770Z,76.37
2016-05-14T22:33:17.772Z,75.79
2016-05-14T22:34:17.802Z,76.27
2016-05-14T22:35:17.660Z,76.18
2016-05-14T22:36:17.847Z,76.52
2016-05-14T22:37:17.876Z,75.6
2016-05-14T22:38:17.726Z,75.95
2016-05-14T22:39:17.883Z,76.46
2016-05-14T22:40:17.871Z,76.71
2016-05-14T22:41:17.873Z,76.32
2016-05-14T22:42:17.876Z,76.32
2016-05-14T22:43:17.874Z,76.61
2016-05-14T22:44:17.866Z,76.61
2016-05-14T22:45:18.453Z,77.28
2016-05-14T22:46:17.836Z,77.28
2016-05-14T22:47:17.812Z,77.18
2016-05-14T22:48:17.805Z,77.47
2016-05-14T22:49:17.793Z,77.66
2016-05-14T22:50:17.767Z,77.84
2016-05-14T22:51:17.771Z,77.84
2016-05-14T22:52:17.745Z,78.03
2016-05-14T22:53:17.749Z,78.23
2016-05-14T22:54:17.706Z,78.89
2016-05-14T22:55:17.537Z,78.42
2016-05-14T22:56:17.680Z,77.84
2016-05-14T22:57:17.668Z,79.27
2016-05-14T22:58:17.641Z,79.08
2016-05-14T22:59:17.628Z,79.08
2016-05-14T23:00:17.601Z,79.27
2016-05-14T23:01:17.587Z,79.17
2016-05-14T23:02:17.575Z,79.65
2016-05-14T23:03:17.390Z,79.17
2016-05-14T23:04:17.534Z,79.08
2016-05-14T23:05:17.521Z,78.99
2016-05-14T23:06:17.507Z,79.27
2016-05-14T23:07:17.323Z,79.55
2016-05-14T23:08:17.465Z,79.27
2016-05-14T23:09:17.453Z,79.46
2016-05-14T23:10:17.441Z,80.13
2016-05-14T23:11:17.428Z,79.65
2016-05-14T23:12:17.399Z,80.13
2016-05-14T23:13:17.386Z,79.46
2016-05-14T23:14:17.357Z,80.69
2016-05-14T23:15:17.345Z,80.13
2016-05-14T23:16:17.331Z,80.22
2016-05-14T23:17:17.303Z,80.98
2016-05-14T23:18:17.290Z,80.6
2016-05-14T23:19:18.277Z,80.22
2016-05-14T23:20:17.264Z,80.79
2016-05-14T23:21:17.236Z,80.79
2016-05-14T23:22:17.222Z,80.13
2016-05-14T23:23:17.194Z,80.03
2016-05-14T23:24:17.025Z,80.03
2016-05-14T23:25:17.169Z,80.22
2016-05-14T23:26:17.155Z,80.88
2016-05-14T23:27:17.127Z,80.98
2016-05-14T23:28:16.957Z,80.79
2016-05-14T23:29:17.132Z,80.84
2016-05-14T23:30:17.072Z,81.17
2016-05-14T23:31:17.060Z,81.23
2016-05-14T23:32:17.047Z,81.32
2016-05-14T23:33:17.018Z,81.41
2016-05-14T23:34:17.098Z,80.84
2016-05-14T23:35:16.976Z,81.26
2016-05-14T23:36:16.823Z,81.13
2016-05-14T23:37:16.966Z,81.13
2016-05-14T23:38:16.922Z,81.51
2016-05-14T23:39:16.909Z,81.6
2016-05-14T23:40:16.896Z,81.51
2016-05-14T23:41:16.711Z,81.41
2016-05-14T23:42:16.854Z,81.88
2016-05-14T23:43:16.842Z,81.88
2016-05-14T23:44:16.673Z,82.08
2016-05-14T23:45:16.801Z,81.88
2016-05-14T23:46:16.787Z,82.08
2016-05-14T23:47:16.603Z,81.88
2016-05-14T23:48:16.745Z,82.74
2016-05-14T23:49:16.749Z,82.36
2016-05-14T23:50:16.719Z,82.65
2016-05-14T23:51:16.707Z,82.17
2016-05-14T23:52:16.678Z,81.98
2016-05-14T23:53:16.666Z,82.46
2016-05-14T23:54:16.481Z,82.78
2016-05-14T23:55:16.624Z,82.59
2016-05-14T23:56:16.611Z,82.4
2016-05-14T23:57:16.583Z,81.93
2016-05-14T23:58:16.429Z,82.17
2016-05-14T23:59:16.588Z,82.5
